Time;durP1;ratioP1;P1;durP2;ratioP2;P2;SDS_P1;SDS_P2;PMS_P1;PMS_P2;Temp;Humidity;BMP_temperature;BMP_pressure;BME280_temperature;BME280_humidity;BME280_pressure;Samples;Min_cycle;Max_cycle;Signal;HPM_P1;HPM_P2
2021/03/02 00:00:09;;;;;;;33.28;21.13;;;5.00;94.00;;;;;;5055906;28;20029;-67
2021/03/02 00:02:35;;;;;;;40.20;22.17;;;4.90;94.00;;;;;;5056010;28;20025;-66
2021/03/02 00:05:03;;;;;;;34.80;21.90;;;4.90;94.00;;;;;;5055374;28;20102;-67
2021/03/02 00:07:29;;;;;;;40.92;22.70;;;4.90;94.10;;;;;;5055722;28;20420;-68
2021/03/02 00:09:58;;;;;;;39.40;22.17;;;4.90;94.20;;;;;;5056205;28;20058;-67
2021/03/02 00:12:24;;;;;;;39.15;21.85;;;4.80;94.10;;;;;;5054924;28;20028;-68
2021/03/02 00:14:50;;;;;;;44.00;23.75;;;4.80;94.10;;;;;;5055794;28;20021;-66
2021/03/02 00:17:33;;;;;;;34.78;20.92;;;4.80;94.10;;;;;;5055684;28;20025;-69
2021/03/02 00:20:07;;;;;;;34.78;21.70;;;4.80;94.10;;;;;;5055343;28;20040;-67
2021/03/02 00:22:41;;;;;;;37.35;22.27;;;4.80;94.10;;;;;;5055510;28;20021;-71
2021/03/02 00:25:11;;;;;;;36.78;23.05;;;4.70;94.10;;;;;;5055123;28;20401;-70
2021/03/02 00:27:38;;;;;;;35.15;22.55;;;4.70;94.10;;;;;;5055588;28;20021;-69
2021/03/02 00:30:05;;;;;;;34.58;21.55;;;4.70;94.20;;;;;;5055651;28;20409;-69
2021/03/02 00:32:32;;;;;;;34.78;21.23;;;4.70;94.30;;;;;;5054858;28;20071;-70
2021/03/02 00:34:58;;;;;;;34.67;23.52;;;4.80;94.30;;;;;;5055512;28;20059;-70
2021/03/02 00:37:23;;;;;;;35.13;21.77;;;4.70;94.30;;;;;;5055128;28;20025;-69
2021/03/02 00:39:49;;;;;;;34.63;21.45;;;4.70;94.30;;;;;;5054718;28;20127;-70
2021/03/02 00:42:14;;;;;;;32.35;21.27;;;4.70;94.20;;;;;;5055064;28;20028;-69
2021/03/02 00:44:40;;;;;;;33.60;21.23;;;4.60;94.20;;;;;;5037445;28;20041;-69
2021/03/02 00:47:07;;;;;;;34.58;21.83;;;4.60;94.20;;;;;;5054316;28;20025;-71
2021/03/02 00:49:32;;;;;;;32.63;20.35;;;4.60;94.20;;;;;;5036979;28;20053;-69
2021/03/02 00:51:58;;;;;;;39.50;23.45;;;4.50;94.20;;;;;;5055199;28;20063;-66
2021/03/02 00:54:24;;;;;;;33.00;21.30;;;4.50;94.20;;;;;;5054230;28;20092;-66
2021/03/02 00:56:49;;;;;;;36.40;21.20;;;4.50;94.20;;;;;;5055037;28;20025;-69
2021/03/02 00:59:15;;;;;;;37.67;22.25;;;4.40;94.20;;;;;;5054819;28;20017;-70
2021/03/02 01:01:41;;;;;;;36.30;21.77;;;4.40;94.20;;;;;;5054461;28;20032;-66
2021/03/02 01:04:06;;;;;;;41.72;22.58;;;4.40;94.30;;;;;;5054924;28;20401;-69
2021/03/02 01:06:32;;;;;;;35.33;22.40;;;4.40;94.40;;;;;;5054492;28;20480;-67
2021/03/02 01:08:58;;;;;;;35.08;21.67;;;4.40;94.40;;;;;;5054402;28;20039;-69
2021/03/02 01:11:23;;;;;;;35.78;22.45;;;4.40;94.40;;;;;;5054601;28;20025;-67
2021/03/02 01:13:50;;;;;;;34.28;21.92;;;4.40;94.40;;;;;;5054743;28;20070;-67
2021/03/02 01:16:16;;;;;;;32.67;21.45;;;4.40;94.40;;;;;;5053956;28;20029;-67
2021/03/02 01:18:41;;;;;;;35.38;21.90;;;4.30;94.40;;;;;;5036859;28;20025;-68
2021/03/02 01:21:07;;;;;;;35.78;22.23;;;4.40;94.40;;;;;;5051987;28;20028;-70
2021/03/02 01:23:32;;;;;;;30.77;20.90;;;4.30;94.40;;;;;;5054271;28;20086;-65
2021/03/02 01:25:58;;;;;;;36.85;22.50;;;4.30;94.40;;;;;;5054513;28;20063;-69
2021/03/02 01:28:24;;;;;;;33.20;21.05;;;4.20;94.40;;;;;;5053583;28;20025;-68
2021/03/02 01:30:49;;;;;;;37.13;22.38;;;4.20;94.40;;;;;;5054522;28;20048;-67
2021/03/02 01:33:15;;;;;;;36.78;22.63;;;4.10;94.40;;;;;;5053458;28;20381;-66
2021/03/02 01:35:40;;;;;;;39.30;22.75;;;4.10;94.50;;;;;;5043829;28;20061;-67
2021/03/02 01:38:06;;;;;;;41.53;24.30;;;4.10;94.60;;;;;;5049253;28;20021;-69
2021/03/02 01:40:32;;;;;;;35.83;21.42;;;4.10;94.60;;;;;;5052989;28;20143;-69
2021/03/02 01:42:58;;;;;;;38.33;23.10;;;4.10;94.70;;;;;;5054035;28;20060;-70
2021/03/02 01:45:23;;;;;;;37.20;22.52;;;4.10;94.70;;;;;;5053906;28;20036;-67
2021/03/02 01:47:51;;;;;;;38.25;24.67;;;4.10;94.70;;;;;;5053350;28;20045;-67
2021/03/02 01:50:18;;;;;;;39.03;23.67;;;4.10;94.80;;;;;;5053917;28;20032;-70
2021/03/02 01:52:44;;;;;;;37.15;23.58;;;4.10;94.80;;;;;;5036224;28;20021;-66
2021/03/02 01:55:10;;;;;;;38.08;23.75;;;4.10;94.80;;;;;;5053058;28;20496;-68
2021/03/02 01:57:36;;;;;;;31.65;21.45;;;4.00;94.90;;;;;;5053867;28;20028;-67
2021/03/02 02:00:24;;;;;;;38.28;23.83;;;4.10;94.90;;;;;;5053869;28;20028;-68
2021/03/02 02:02:59;;;;;;;41.08;24.35;;;4.10;94.90;;;;;;5052738;28;20096;-68
2021/03/02 02:05:27;;;;;;;38.42;23.48;;;4.10;94.90;;;;;;5053402;28;20482;-70
2021/03/02 02:08:00;;;;;;;39.75;25.15;;;4.00;94.90;;;;;;5053963;28;20029;-70
2021/03/02 02:10:54;;;;;;;38.38;23.45;;;4.00;94.90;;;;;;5052683;28;20052;-69
2021/03/02 02:13:27;;;;;;;40.25;23.60;;;4.00;95.00;;;;;;5042680;28;20040;-68
2021/03/02 02:15:56;;;;;;;47.15;24.52;;;4.00;94.90;;;;;;5035135;28;20017;-69
2021/03/02 02:18:29;;;;;;;40.33;24.35;;;4.00;95.00;;;;;;5035455;28;20033;-69
2021/03/02 02:21:06;;;;;;;39.65;23.88;;;3.90;95.00;;;;;;5053491;28;20024;-69
2021/03/02 02:23:34;;;;;;;38.38;24.52;;;3.90;95.00;;;;;;5034764;28;20381;-68
2021/03/02 02:26:27;;;;;;;40.10;24.92;;;3.90;95.00;;;;;;5053380;28;20025;-68
2021/03/02 02:28:55;;;;;;;40.28;23.60;;;3.90;95.00;;;;;;5053434;28;20025;-69
2021/03/02 02:31:24;;;;;;;41.22;24.10;;;3.90;95.00;;;;;;5052347;28;20055;-67
2021/03/02 02:33:51;;;;;;;41.78;24.52;;;3.90;95.10;;;;;;5053371;28;20399;-68
2021/03/02 02:36:19;;;;;;;42.42;24.77;;;3.90;95.10;;;;;;5052787;28;20017;-67
2021/03/02 02:38:51;;;;;;;38.45;23.85;;;3.90;95.40;;;;;;5052527;28;20500;-66
2021/03/02 02:41:19;;;;;;;41.00;24.10;;;3.90;95.10;;;;;;5035065;28;20025;-68
2021/03/02 02:43:46;;;;;;;37.58;22.85;;;3.80;95.10;;;;;;5052326;28;20044;-68
2021/03/02 02:46:13;;;;;;;40.97;23.88;;;3.80;95.10;;;;;;5052677;28;20047;-69
2021/03/02 02:48:39;;;;;;;41.55;23.63;;;3.80;95.10;;;;;;5052967;28;20053;-68
2021/03/02 02:51:04;;;;;;;38.17;23.77;;;3.80;95.10;;;;;;5052486;28;20029;-69
2021/03/02 02:53:31;;;;;;;38.17;24.00;;;3.70;95.10;;;;;;5052658;28;20021;-69
2021/03/02 02:56:02;;;;;;;41.55;25.77;;;3.70;95.20;;;;;;5052871;28;20068;-69
2021/03/02 02:58:38;;;;;;;40.75;23.98;;;3.80;95.30;;;;;;5051999;28;20444;-69
2021/03/02 03:01:04;;;;;;;39.83;23.48;;;3.70;95.20;;;;;;5035003;28;20064;-69
2021/03/02 03:03:35;;;;;;;38.58;25.10;;;3.80;95.30;;;;;;5052571;28;20554;-70
2021/03/02 03:06:05;;;;;;;40.83;25.33;;;3.80;95.30;;;;;;5052531;28;20025;-69
2021/03/02 03:08:33;;;;;;;42.92;25.55;;;3.80;95.30;;;;;;5052492;28;20378;-68
2021/03/02 03:11:01;;;;;;;38.05;23.35;;;3.70;95.30;;;;;;5047973;28;20025;-67
2021/03/02 03:13:34;;;;;;;42.85;24.05;;;3.70;95.30;;;;;;5037894;28;20029;-69
2021/03/02 03:16:01;;;;;;;41.58;25.70;;;3.70;95.30;;;;;;5033269;28;20032;-68
2021/03/02 03:18:41;;;;;;;41.47;26.27;;;3.70;95.30;;;;;;5052382;28;20094;-65
2021/03/02 03:21:09;;;;;;;41.30;24.92;;;3.70;95.30;;;;;;5052960;28;20178;-66
2021/03/02 03:23:35;;;;;;;40.97;25.38;;;3.70;95.30;;;;;;5052620;28;20086;-66
2021/03/02 03:26:02;;;;;;;40.17;24.83;;;3.60;95.30;;;;;;5051840;28;20032;-66
2021/03/02 03:28:28;;;;;;;41.65;24.50;;;3.60;95.40;;;;;;5049164;28;20024;-68
2021/03/02 03:30:55;;;;;;;39.15;25.42;;;3.60;95.40;;;;;;5032690;28;20029;-69
2021/03/02 03:33:21;;;;;;;39.35;24.20;;;3.60;95.40;;;;;;5031790;28;20443;-69
2021/03/02 03:35:46;;;;;;;43.10;24.23;;;3.50;95.40;;;;;;5014783;28;20017;-66
2021/03/02 03:38:12;;;;;;;43.13;25.50;;;3.50;95.30;;;;;;5032539;28;20025;-66
2021/03/02 03:40:37;;;;;;;45.78;24.20;;;3.50;95.40;;;;;;5031847;28;20104;-67
2021/03/02 03:43:03;;;;;;;43.38;25.08;;;3.50;95.40;;;;;;5022842;28;20437;-66
2021/03/02 03:45:29;;;;;;;42.20;25.30;;;3.50;95.70;;;;;;5050851;28;20021;-66
2021/03/02 03:47:56;;;;;;;43.38;25.15;;;3.40;95.40;;;;;;5050029;28;20055;-66
2021/03/02 03:50:21;;;;;;;43.47;24.67;;;3.40;95.40;;;;;;5033673;28;20028;-67
2021/03/02 03:52:51;;;;;;;43.33;24.23;;;3.40;95.40;;;;;;5051066;28;20025;-69
2021/03/02 03:55:19;;;;;;;42.05;27.63;;;3.40;95.40;;;;;;5045890;28;20124;-66
2021/03/02 03:57:46;;;;;;;42.10;25.55;;;3.40;95.50;;;;;;5050155;28;20025;-67
2021/03/02 04:00:12;;;;;;;39.58;24.08;;;3.40;95.50;;;;;;5050566;28;20025;-66
2021/03/02 04:02:39;;;;;;;40.05;26.42;;;3.40;95.50;;;;;;5050521;28;20033;-68
2021/03/02 04:05:06;;;;;;;40.90;24.27;;;3.40;95.50;;;;;;5051778;28;20135;-73
2021/03/02 04:07:34;;;;;;;43.63;25.02;;;3.40;95.50;;;;;;5050756;28;20105;-68
2021/03/02 04:10:00;;;;;;;41.00;25.10;;;3.30;95.50;;;;;;5050950;28;20029;-68
2021/03/02 04:12:38;;;;;;;45.00;26.85;;;3.30;95.60;;;;;;5051682;28;20021;-68
2021/03/02 04:15:10;;;;;;;42.83;25.95;;;3.30;95.60;;;;;;5051634;28;20017;-68
2021/03/02 04:17:35;;;;;;;38.40;24.95;;;3.30;95.60;;;;;;5034323;28;20033;-66
2021/03/02 04:20:02;;;;;;;39.42;24.58;;;3.30;95.60;;;;;;5052225;28;20377;-68
2021/03/02 04:22:31;;;;;;;35.83;23.40;;;3.30;95.60;;;;;;5033125;28;20025;-67
2021/03/02 04:24:56;;;;;;;39.13;23.73;;;3.30;95.60;;;;;;5035164;28;20132;-69
2021/03/02 04:27:22;;;;;;;36.55;23.60;;;3.30;95.50;;;;;;5055425;28;20136;-68
2021/03/02 04:29:47;;;;;;;36.47;23.70;;;3.30;95.50;;;;;;5055120;28;20108;-69
2021/03/02 04:32:12;;;;;;;38.08;24.17;;;3.20;95.40;;;;;;5055389;28;20384;-67
2021/03/02 04:34:38;;;;;;;34.92;22.42;;;3.20;95.70;;;;;;5055680;28;20033;-68
2021/03/02 04:37:03;;;;;;;34.65;22.00;;;3.20;95.40;;;;;;5054821;28;20035;-70
2021/03/02 04:39:29;;;;;;;40.10;23.92;;;3.20;95.40;;;;;;5055177;28;20028;-69
2021/03/02 04:41:54;;;;;;;37.10;22.02;;;3.10;95.40;;;;;;5037681;28;20369;-68
2021/03/02 04:44:20;;;;;;;38.17;22.95;;;3.10;95.40;;;;;;5054473;28;20044;-67
2021/03/02 04:46:46;;;;;;;33.65;21.65;;;3.10;95.40;;;;;;5055353;28;20059;-68
2021/03/02 04:49:11;;;;;;;36.58;23.05;;;3.10;95.40;;;;;;5054747;28;20084;-67
2021/03/02 04:51:37;;;;;;;35.72;21.98;;;3.10;95.50;;;;;;5054598;28;20557;-67
2021/03/02 04:54:02;;;;;;;39.90;23.20;;;3.10;95.50;;;;;;5055123;28;20023;-66
2021/03/02 04:56:28;;;;;;;37.78;22.50;;;3.20;95.60;;;;;;5055431;28;20718;-66
2021/03/02 04:58:53;;;;;;;36.38;22.33;;;3.10;95.50;;;;;;5054604;28;20057;-67
2021/03/02 05:01:19;;;;;;;35.67;22.30;;;3.10;95.50;;;;;;5054931;28;20025;-67
2021/03/02 05:03:44;;;;;;;36.13;22.35;;;3.20;95.60;;;;;;5055060;28;20497;-67
2021/03/02 05:06:10;;;;;;;38.35;23.05;;;3.10;95.50;;;;;;5036061;28;20021;-67
2021/03/02 05:08:35;;;;;;;37.33;24.13;;;3.10;95.50;;;;;;5055109;28;20032;-68
2021/03/02 05:11:01;;;;;;;36.45;22.25;;;3.10;95.60;;;;;;5054749;28;20021;-69
2021/03/02 05:13:26;;;;;;;43.90;28.27;;;3.10;95.60;;;;;;5053916;28;20025;-67
2021/03/02 05:15:52;;;;;;;41.55;24.58;;;3.10;95.60;;;;;;5054829;28;20048;-70
2021/03/02 05:18:17;;;;;;;37.05;22.02;;;3.10;95.60;;;;;;5036059;28;20021;-66
2021/03/02 05:20:43;;;;;;;35.25;22.17;;;3.10;95.60;;;;;;5054758;28;20095;-66
2021/03/02 05:23:08;;;;;;;40.13;24.17;;;3.10;95.60;;;;;;5054410;28;20473;-66
2021/03/02 05:25:34;;;;;;;36.13;21.35;;;3.10;95.60;;;;;;5053709;28;20047;-68
2021/03/02 05:27:59;;;;;;;41.42;22.48;;;3.10;95.60;;;;;;5054868;28;20028;-67
2021/03/02 05:30:25;;;;;;;35.85;21.45;;;3.10;95.60;;;;;;5054352;28;20088;-68
2021/03/02 05:32:50;;;;;;;35.17;22.10;;;3.00;95.60;;;;;;5053856;28;20051;-68
2021/03/02 05:35:16;;;;;;;39.75;23.13;;;3.10;95.70;;;;;;5054076;28;20086;-67
2021/03/02 05:37:41;;;;;;;40.83;25.38;;;3.00;95.60;;;;;;5053363;28;20021;-68
2021/03/02 05:40:07;;;;;;;37.13;23.00;;;3.00;95.60;;;;;;5048788;28;20037;-67
2021/03/02 05:42:34;;;;;;;35.45;22.23;;;3.00;95.70;;;;;;5054168;28;20029;-69
2021/03/02 05:45:03;;;;;;;36.08;23.02;;;3.00;95.70;;;;;;5036342;28;20035;-69
2021/03/02 05:47:32;;;;;;;37.90;23.52;;;3.00;95.60;;;;;;5034697;28;20042;-66
2021/03/02 05:49:57;;;;;;;37.72;23.80;;;3.00;95.70;;;;;;5034187;28;20032;-66
2021/03/02 05:52:23;;;;;;;34.55;22.17;;;3.10;95.70;;;;;;5033979;28;20025;-66
2021/03/02 05:54:52;;;;;;;37.25;23.55;;;3.10;95.70;;;;;;5033553;28;20113;-64
2021/03/02 05:57:17;;;;;;;38.63;23.52;;;3.10;95.70;;;;;;5033714;28;20017;-65
2021/03/02 05:59:44;;;;;;;41.40;24.77;;;3.10;95.70;;;;;;5035125;28;20031;-66
2021/03/02 06:02:09;;;;;;;38.75;24.13;;;3.10;95.70;;;;;;5045946;28;20101;-68
2021/03/02 06:04:35;;;;;;;37.53;24.42;;;3.10;95.70;;;;;;5033950;28;20117;-67
2021/03/02 06:07:02;;;;;;;40.72;24.35;;;3.10;95.70;;;;;;5034885;28;20474;-65
2021/03/02 06:09:29;;;;;;;37.20;23.20;;;3.10;95.70;;;;;;5033018;28;20040;-67
2021/03/02 06:12:05;;;;;;;38.65;24.88;;;3.10;95.70;;;;;;5016121;28;20018;-68
2021/03/02 06:14:34;;;;;;;36.47;23.77;;;3.10;95.70;;;;;;5041131;28;20057;-66
2021/03/02 06:17:00;;;;;;;38.42;24.92;;;3.20;95.80;;;;;;5055618;28;20029;-68
2021/03/02 06:19:45;;;;;;;38.13;24.27;;;3.20;95.80;;;;;;5052420;28;20025;-67
2021/03/02 06:22:31;;;;;;;39.15;24.13;;;3.20;95.80;;;;;;5052462;28;20096;-67
2021/03/02 06:24:57;;;;;;;39.92;24.30;;;3.20;95.80;;;;;;5052447;28;20033;-66
2021/03/02 06:27:23;;;;;;;37.20;23.30;;;3.30;95.90;;;;;;5032712;28;20037;-68
2021/03/02 06:30:15;;;;;;;38.95;24.30;;;3.40;95.90;;;;;;5014275;28;20021;-69
2021/03/02 06:32:45;;;;;;;39.55;24.95;;;3.40;95.80;;;;;;5040932;28;20465;-70
2021/03/02 06:35:13;;;;;;;36.30;24.10;;;3.50;95.70;;;;;;5026227;28;20721;-68
2021/03/02 06:37:40;;;;;;;34.90;23.25;;;3.50;95.60;;;;;;5014886;28;20122;-66
2021/03/02 06:40:07;;;;;;;33.47;22.42;;;3.60;95.60;;;;;;5033234;28;20104;-67
2021/03/02 06:42:37;;;;;;;36.53;22.85;;;3.60;95.50;;;;;;5032555;28;20057;-68
2021/03/02 06:45:08;;;;;;;34.75;23.13;;;3.70;95.50;;;;;;5032872;28;20029;-70
2021/03/02 06:47:36;;;;;;;35.42;22.52;;;3.70;95.40;;;;;;5032551;28;20064;-69
2021/03/02 06:50:23;;;;;;;34.42;23.40;;;3.80;95.40;;;;;;5032999;28;20030;-71
2021/03/02 06:52:49;;;;;;;34.08;23.40;;;3.80;95.40;;;;;;5032743;28;20095;-71
2021/03/02 06:55:15;;;;;;;35.70;22.20;;;3.90;95.40;;;;;;5032648;28;20029;-71
2021/03/02 06:57:45;;;;;;;30.80;20.77;;;4.00;95.40;;;;;;5037260;28;20029;-69
2021/03/02 07:00:11;;;;;;;34.05;21.77;;;4.00;95.30;;;;;;5029905;28;20028;-68
2021/03/02 07:02:43;;;;;;;219.55;32.72;;;4.10;95.30;;;;;;5034711;28;20021;-69
2021/03/02 07:05:16;;;;;;;36.03;25.83;;;4.10;95.20;;;;;;5051450;28;20036;-70
2021/03/02 07:07:44;;;;;;;34.92;22.10;;;4.20;95.20;;;;;;5040460;28;20033;-71
2021/03/02 07:10:11;;;;;;;45.67;26.33;;;4.30;95.20;;;;;;5049660;28;20025;-69
2021/03/02 07:12:40;;;;;;;60.80;31.42;;;4.30;95.20;;;;;;5033460;28;20112;-69
2021/03/02 07:15:10;;;;;;;56.90;29.35;;;4.40;95.20;;;;;;5052420;28;20100;-67
2021/03/02 07:17:44;;;;;;;48.13;27.23;;;4.50;95.10;;;;;;5040767;28;20536;-68
2021/03/02 07:20:17;;;;;;;42.15;25.27;;;4.50;95.10;;;;;;5031720;28;20100;-65
2021/03/02 07:22:47;;;;;;;36.28;23.67;;;4.60;95.00;;;;;;5026447;28;20098;-66
2021/03/02 07:25:17;;;;;;;36.20;23.08;;;4.60;94.90;;;;;;5044949;28;20120;-67
2021/03/02 07:27:43;;;;;;;34.45;22.15;;;4.70;94.90;;;;;;5052534;28;20103;-68
2021/03/02 07:30:13;;;;;;;35.35;23.17;;;4.70;94.80;;;;;;5052394;28;20112;-67
2021/03/02 07:32:40;;;;;;;31.05;20.65;;;4.80;94.80;;;;;;5051908;28;20071;-70
2021/03/02 07:35:14;;;;;;;32.17;21.27;;;4.90;94.80;;;;;;5052612;28;20024;-70
2021/03/02 07:37:40;;;;;;;29.30;20.35;;;4.90;94.80;;;;;;5052501;28;20036;-70
2021/03/02 07:40:10;;;;;;;31.00;20.75;;;5.00;94.70;;;;;;5049970;28;20029;-71
2021/03/02 07:42:37;;;;;;;33.00;21.00;;;5.10;94.70;;;;;;5052936;28;20056;-67
2021/03/02 07:45:17;;;;;;;30.63;19.23;;;5.00;94.60;;;;;;5034457;28;20167;-68
2021/03/02 07:47:51;;;;;;;31.27;20.65;;;5.10;94.60;;;;;;5051556;28;20029;-68
2021/03/02 07:50:25;;;;;;;29.58;19.85;;;5.20;94.60;;;;;;5052058;28;20029;-68
2021/03/02 07:53:20;;;;;;;30.95;20.88;;;5.20;94.50;;;;;;5034413;28;20409;-68
2021/03/02 07:56:04;;;;;;;30.30;20.33;;;5.30;94.40;;;;;;5052334;28;20064;-67
2021/03/02 07:58:30;;;;;;;29.73;19.65;;;5.30;94.40;;;;;;5051903;28;20025;-69
2021/03/02 08:01:19;;;;;;;29.75;20.10;;;5.40;94.30;;;;;;5053887;28;20024;-71
2021/03/02 08:03:44;;;;;;;29.67;20.27;;;5.40;94.20;;;;;;5038492;28;20087;-69
2021/03/02 08:06:25;;;;;;;29.70;19.02;;;5.50;94.20;;;;;;5055727;28;20473;-68
2021/03/02 08:08:51;;;;;;;33.00;21.45;;;5.50;94.10;;;;;;5055567;28;20421;-70
2021/03/02 08:11:33;;;;;;;29.20;20.08;;;5.60;94.10;;;;;;5055694;28;20025;-71
2021/03/02 08:14:22;;;;;;;28.77;19.30;;;5.60;94.00;;;;;;5037983;28;20028;-68
2021/03/02 08:17:01;;;;;;;27.10;18.48;;;5.60;94.00;;;;;;5039635;28;20089;-72
2021/03/02 08:19:34;;;;;;;30.10;20.73;;;5.70;93.90;;;;;;5037604;28;20071;-72
2021/03/02 08:22:02;;;;;;;28.50;19.63;;;5.70;93.90;;;;;;5037279;28;20021;-68
2021/03/02 08:24:53;;;;;;;27.42;19.90;;;5.80;93.80;;;;;;5055495;28;20481;-68
2021/03/02 08:28:00;;;;;;;27.40;19.48;;;5.80;93.70;;;;;;5055343;28;20036;-67
2021/03/02 08:30:38;;;;;;;26.42;18.88;;;5.90;93.60;;;;;;4954449;29;20039;-67
2021/03/02 08:33:09;;;;;;;28.50;18.88;;;6.00;93.50;;;;;;4955678;29;20038;-70
2021/03/02 08:35:41;;;;;;;31.70;20.35;;;6.00;93.40;;;;;;5015729;28;20029;-70
2021/03/02 08:38:08;;;;;;;28.80;17.70;;;6.00;93.40;;;;;;5055521;28;20021;-69
2021/03/02 08:40:33;;;;;;;24.98;19.33;;;6.10;93.40;;;;;;5055513;28;20021;-72
2021/03/02 08:43:20;;;;;;;24.42;17.85;;;6.20;93.30;;;;;;5036692;28;20163;-69
2021/03/02 08:45:50;;;;;;;25.27;18.73;;;6.20;93.20;;;;;;5055369;28;20140;-68
2021/03/02 08:48:33;;;;;;;23.30;17.48;;;6.30;93.10;;;;;;5054753;28;20048;-67
2021/03/02 08:51:00;;;;;;;;;;;6.30;93.00;;;;;;5055197;28;20057;-70
2021/03/02 08:53:43;;;;;;;22.88;16.63;;;6.30;93.00;;;;;;5054833;28;19908;-68
2021/03/02 08:56:12;;;;;;;22.98;17.70;;;6.40;92.90;;;;;;5036892;28;20428;-68
2021/03/02 08:58:42;;;;;;;26.90;17.60;;;6.40;92.90;;;;;;5054583;28;20025;-70
2021/03/02 09:01:11;;;;;;;25.90;16.75;;;6.40;92.80;;;;;;5037151;28;20108;-68
2021/03/02 09:03:42;;;;;;;25.70;17.10;;;6.40;92.60;;;;;;5054379;28;20040;-69
2021/03/02 09:06:21;;;;;;;25.05;16.35;;;6.50;92.60;;;;;;5054858;28;20465;-70
2021/03/02 09:08:48;;;;;;;24.52;17.33;;;6.60;92.50;;;;;;5055125;28;20052;-68
2021/03/02 09:11:16;;;;;;;23.77;17.23;;;6.60;92.40;;;;;;5053939;28;20024;-69
2021/03/02 09:13:42;;;;;;;25.60;17.52;;;6.70;92.30;;;;;;5054971;28;20018;-69
2021/03/02 09:16:27;;;;;;;24.33;18.08;;;6.80;92.30;;;;;;5036918;28;20021;-71
2021/03/02 09:19:15;;;;;;;24.52;16.92;;;6.90;92.10;;;;;;5054040;28;20025;-67
2021/03/02 09:21:48;;;;;;;23.08;17.30;;;6.90;92.00;;;;;;5036958;28;20036;-69
2021/03/02 09:24:17;;;;;;;24.70;17.65;;;7.00;91.70;;;;;;5036294;28;20028;-67
2021/03/02 09:27:04;;;;;;;22.73;16.70;;;7.10;91.70;;;;;;5053855;28;20374;-67
2021/03/02 09:29:35;;;;;;;24.60;18.15;;;7.10;91.60;;;;;;5036303;28;20028;-70
2021/03/02 09:32:04;;;;;;;26.92;18.90;;;7.20;91.30;;;;;;5053974;28;20029;-69
2021/03/02 09:34:37;;;;;;;24.35;17.02;;;7.20;91.30;;;;;;5054120;28;20017;-68
2021/03/02 09:37:06;;;;;;;22.65;16.90;;;7.20;91.30;;;;;;5054345;28;20115;-69
2021/03/02 09:39:32;;;;;;;24.17;17.98;;;7.30;91.30;;;;;;5035536;28;20020;-72
2021/03/02 09:41:58;;;;;;;24.88;17.85;;;7.40;91.30;;;;;;5054462;28;20413;-70
2021/03/02 09:44:32;;;;;;;22.92;16.67;;;7.50;91.30;;;;;;5053976;28;20068;-72
2021/03/02 09:47:04;;;;;;;25.42;17.58;;;7.50;91.10;;;;;;5053443;28;20428;-72
2021/03/02 09:49:41;;;;;;;24.98;18.25;;;7.60;91.10;;;;;;5053755;28;20394;-72
2021/03/02 09:52:20;;;;;;;23.73;17.35;;;7.70;91.00;;;;;;5036195;28;20029;-71
2021/03/02 09:55:06;;;;;;;23.33;17.30;;;7.70;91.00;;;;;;5053696;28;20070;-70
2021/03/02 09:57:31;;;;;;;25.60;17.55;;;7.80;90.90;;;;;;5053551;28;20052;-68
2021/03/02 09:59:57;;;;;;;22.52;16.88;;;7.80;90.90;;;;;;5035678;28;20469;-68
2021/03/02 10:02:22;;;;;;;23.92;17.98;;;7.90;90.90;;;;;;5053712;28;20359;-72
2021/03/02 10:04:48;;;;;;;23.20;16.95;;;7.90;90.70;;;;;;5035841;28;20060;-66
2021/03/02 10:07:13;;;;;;;23.77;17.67;;;8.00;90.70;;;;;;5052924;28;20423;-69
2021/03/02 10:09:47;;;;;;;24.20;18.02;;;8.00;90.60;;;;;;5054052;28;20025;-70
2021/03/02 10:12:14;;;;;;;26.25;18.48;;;8.10;90.60;;;;;;5053381;28;20024;-74
2021/03/02 10:14:41;;;;;;;21.73;17.58;;;8.20;90.60;;;;;;5053209;28;20124;-68
2021/03/02 10:17:08;;;;;;;23.83;16.83;;;8.20;90.50;;;;;;5035771;28;20017;-70
2021/03/02 10:19:34;;;;;;;21.65;16.75;;;8.30;90.40;;;;;;5035616;28;20108;-68
2021/03/02 10:22:02;;;;;;;26.45;17.23;;;8.40;90.70;;;;;;5035311;28;20079;-71
2021/03/02 10:24:36;;;;;;;27.58;18.40;;;8.50;90.30;;;;;;5034726;28;20075;-68
2021/03/02 10:27:15;;;;;;;23.10;17.27;;;8.60;90.20;;;;;;5035663;28;20477;-70
2021/03/02 10:29:43;;;;;;;21.70;15.82;;;8.70;90.00;;;;;;5052690;28;20076;-68
2021/03/02 10:32:10;;;;;;;25.80;16.77;;;8.70;90.00;;;;;;5035328;28;20446;-67
2021/03/02 10:34:37;;;;;;;22.60;16.17;;;8.80;90.00;;;;;;5053491;28;20032;-70
2021/03/02 10:37:05;;;;;;;21.83;15.07;;;8.90;90.00;;;;;;5052543;28;20061;-68
2021/03/02 10:39:31;;;;;;;21.45;15.75;;;9.00;90.00;;;;;;5052992;28;20025;-68
2021/03/02 10:41:58;;;;;;;21.15;15.10;;;9.00;89.70;;;;;;5052395;28;20024;-67
2021/03/02 10:44:24;;;;;;;21.02;15.70;;;9.10;89.60;;;;;;5052706;28;20045;-67
2021/03/02 10:46:49;;;;;;;22.25;16.73;;;9.20;89.30;;;;;;5052822;28;20071;-68
2021/03/02 10:49:15;;;;;;;19.20;14.80;;;9.30;89.10;;;;;;5051782;28;20048;-69
2021/03/02 10:51:41;;;;;;;20.50;14.70;;;9.40;89.10;;;;;;5035104;28;20029;-67
2021/03/02 10:54:08;;;;;;;19.90;15.02;;;9.50;89.00;;;;;;5035063;28;20017;-69
2021/03/02 10:56:34;;;;;;;20.25;14.07;;;9.60;88.70;;;;;;5052097;28;20058;-73
2021/03/02 10:59:00;;;;;;;18.60;14.27;;;9.60;88.40;;;;;;5035099;28;20017;-68
2021/03/02 11:01:25;;;;;;;16.58;13.73;;;9.80;88.20;;;;;;5052495;28;20108;-70
2021/03/02 11:03:52;;;;;;;19.33;14.40;;;9.80;87.90;;;;;;5051981;28;20072;-68
2021/03/02 11:06:20;;;;;;;17.52;14.32;;;10.00;87.70;;;;;;5052342;28;20501;-69
2021/03/02 11:08:48;;;;;;;17.52;13.73;;;10.00;87.60;;;;;;5052686;28;20104;-68
2021/03/02 11:11:15;;;;;;;18.90;13.27;;;10.10;87.40;;;;;;5034016;28;20067;-71
2021/03/02 11:13:42;;;;;;;17.95;13.75;;;10.20;87.00;;;;;;5034820;28;20028;-68
2021/03/02 11:16:10;;;;;;;19.60;13.77;;;10.30;86.80;;;;;;5052526;28;20086;-68
2021/03/02 11:18:36;;;;;;;14.43;12.13;;;10.30;86.50;;;;;;5034118;28;20043;-71
2021/03/02 11:21:02;;;;;;;18.75;12.13;;;10.40;86.30;;;;;;5052621;28;20025;-69
2021/03/02 11:23:27;;;;;;;17.67;10.77;;;10.50;86.00;;;;;;5034299;28;20584;-67
2021/03/02 11:25:53;;;;;;;15.02;10.80;;;10.60;85.50;;;;;;5051794;28;20021;-68
2021/03/02 11:28:19;;;;;;;12.60;9.35;;;10.70;84.80;;;;;;5052208;28;20486;-69
2021/03/02 11:30:44;;;;;;;12.88;10.10;;;10.80;84.20;;;;;;5034742;28;20045;-69
2021/03/02 11:33:11;;;;;;;14.45;10.23;;;10.90;83.60;;;;;;5051487;28;20096;-67
2021/03/02 11:35:38;;;;;;;14.60;9.98;;;10.90;83.10;;;;;;5054400;28;20017;-67
2021/03/02 11:38:04;;;;;;;12.85;10.00;;;11.00;82.60;;;;;;5038187;28;20020;-70
2021/03/02 11:40:30;;;;;;;13.93;10.02;;;11.10;82.10;;;;;;5038423;28;20056;-69
2021/03/02 11:42:57;;;;;;;12.63;9.77;;;11.20;81.80;;;;;;5056672;28;20021;-69
2021/03/02 11:45:28;;;;;;;13.73;9.90;;;11.20;81.40;;;;;;5055230;28;20562;-69
2021/03/02 11:47:54;;;;;;;11.73;9.73;;;11.30;81.00;;;;;;5056070;28;20029;-70
2021/03/02 11:50:20;;;;;;;13.18;9.38;;;11.40;80.80;;;;;;5056106;28;20029;-69
2021/03/02 11:52:47;;;;;;;14.13;9.43;;;11.40;80.50;;;;;;5055643;28;20465;-67
2021/03/02 11:55:13;;;;;;;13.50;9.70;;;11.50;80.10;;;;;;5055909;28;20095;-69
2021/03/02 11:57:39;;;;;;;15.18;10.38;;;11.50;79.90;;;;;;5056449;28;20032;-68
2021/03/02 12:00:09;;;;;;;12.88;9.82;;;11.60;79.40;;;;;;5055448;28;20024;-67
2021/03/02 12:02:34;;;;;;;13.98;10.48;;;11.60;79.20;;;;;;5056110;28;20025;-69
2021/03/02 12:05:00;;;;;;;15.57;10.13;;;11.70;79.20;;;;;;5037992;28;20086;-68
2021/03/02 12:07:26;;;;;;;13.95;10.35;;;11.80;79.00;;;;;;5037327;28;20508;-68
2021/03/02 12:09:52;;;;;;;14.45;9.80;;;11.80;78.70;;;;;;5056173;28;20021;-70
2021/03/02 12:12:17;;;;;;;14.55;10.68;;;11.90;78.60;;;;;;5055660;28;20096;-70
2021/03/02 12:14:43;;;;;;;14.85;9.80;;;12.00;78.30;;;;;;5037248;28;20171;-69
2021/03/02 12:17:08;;;;;;;13.75;10.10;;;12.00;78.00;;;;;;5055533;28;20032;-66
2021/03/02 12:19:34;;;;;;;12.48;9.70;;;12.10;77.70;;;;;;5055916;28;20028;-71
2021/03/02 12:21:59;;;;;;;11.70;10.18;;;12.20;77.50;;;;;;5037281;28;20372;-68
2021/03/02 12:24:25;;;;;;;13.15;10.35;;;12.20;77.00;;;;;;5055372;28;20035;-68
2021/03/02 12:26:50;;;;;;;14.65;10.25;;;12.30;77.10;;;;;;5055537;28;20075;-68
2021/03/02 12:29:17;;;;;;;15.48;10.80;;;12.30;76.90;;;;;;5036995;28;20060;-69
2021/03/02 12:31:43;;;;;;;16.42;11.40;;;12.40;76.50;;;;;;5055593;28;20100;-69
2021/03/02 12:34:10;;;;;;;15.32;10.98;;;12.40;76.30;;;;;;5037399;28;20445;-68
2021/03/02 12:36:35;;;;;;;16.60;10.77;;;12.40;76.10;;;;;;5054734;28;20021;-68
2021/03/02 12:39:01;;;;;;;14.82;10.50;;;12.50;76.00;;;;;;5037516;28;20031;-71
2021/03/02 12:41:26;;;;;;;13.43;10.48;;;12.50;75.80;;;;;;5054580;28;20425;-67
2021/03/02 12:43:52;;;;;;;14.43;10.32;;;12.60;75.60;;;;;;5037256;28;20032;-69